Time;durP1;ratioP1;P1;durP2;ratioP2;P2;SDS_P1;SDS_P2;PMS_P1;PMS_P2;Temp;Humidity;BMP_temperature;BMP_pressure;BME280_temperature;BME280_humidity;BME280_pressure;Samples;Min_cycle;Max_cycle;Signal;HPM_P1;HPM_P2
2023/03/13 00:00:17;;;;;;;2.35;1.88;;;;;;;;;;5035631;28;20479;-63
2023/03/13 00:02:44;;;;;;;2.38;2.00;;;;;;;;;;5035473;28;20072;-64
2023/03/13 00:05:13;;;;;;;2.10;1.90;;;;;;;;;;5035410;28;20061;-65
2023/03/13 00:07:39;;;;;;;2.40;2.03;;;;;;;;;;5035429;28;20104;-64
2023/03/13 00:10:05;;;;;;;2.30;2.10;;;;;;;;;;5035334;28;20160;-63
2023/03/13 00:12:31;;;;;;;2.15;1.95;;;;;;;;;;5035618;28;20025;-60
2023/03/13 00:14:57;;;;;;;2.30;2.10;;;;;;;;;;5035271;28;20389;-60
2023/03/13 00:17:22;;;;;;;2.20;1.92;;;;;;;;;;5035295;28;20037;-60
2023/03/13 00:19:49;;;;;;;1.73;1.63;;;;;;;;;;5035234;28;20021;-60
2023/03/13 00:22:15;;;;;;;2.50;2.30;;;;;;;;;;5035154;28;20033;-60
2023/03/13 00:24:41;;;;;;;2.00;1.65;;;;;;;;;;5035163;28;20105;-61
2023/03/13 00:27:06;;;;;;;2.00;1.85;;;;;;;;;;5035362;28;20051;-65
2023/03/13 00:29:33;;;;;;;2.00;1.80;;;;;;;;;;5034971;28;20460;-64
2023/03/13 00:32:00;;;;;;;2.92;2.20;;;;;;;;;;5035002;28;20029;-64
2023/03/13 00:34:26;;;;;;;2.13;1.92;;;;;;;;;;5034890;28;20136;-64
2023/03/13 00:36:52;;;;;;;3.03;2.38;;;;;;;;;;5034699;28;20038;-64
2023/03/13 00:39:18;;;;;;;2.13;1.85;;;;;;;;;;5034847;28;20100;-65
2023/03/13 00:41:43;;;;;;;2.38;1.92;;;;;;;;;;5034720;28;20052;-64
2023/03/13 00:44:09;;;;;;;2.30;2.00;;;;;;;;;;5034852;28;20034;-64
2023/03/13 00:46:35;;;;;;;2.00;1.80;;;;;;;;;;5033624;28;20021;-64
2023/03/13 00:49:01;;;;;;;2.22;2.03;;;;;;;;;;5034682;28;20029;-63
2023/03/13 00:51:27;;;;;;;1.92;1.80;;;;;;;;;;5033469;28;20083;-61
2023/03/13 00:53:54;;;;;;;1.90;1.80;;;;;;;;;;5034621;28;20037;-61
2023/03/13 00:56:20;;;;;;;2.35;2.15;;;;;;;;;;5034599;28;20083;-61
2023/03/13 00:58:47;;;;;;;2.28;2.05;;;;;;;;;;5034529;28;20022;-60
2023/03/13 01:01:23;;;;;;;2.40;2.08;;;;;;;;;;5034472;28;20431;-60
2023/03/13 01:03:52;;;;;;;3.00;1.92;;;;;;;;;;5034377;28;20042;-61
2023/03/13 01:06:20;;;;;;;1.90;1.77;;;;;;;;;;5034735;28;20183;-61
2023/03/13 01:08:47;;;;;;;1.80;1.70;;;;;;;;;;5034217;28;20078;-61
2023/03/13 01:11:19;;;;;;;2.03;1.83;;;;;;;;;;5033692;28;20029;-61
2023/03/13 01:13:46;;;;;;;2.30;2.10;;;;;;;;;;5034272;28;20488;-61
2023/03/13 01:16:17;;;;;;;1.90;1.80;;;;;;;;;;5033287;28;20079;-65
2023/03/13 01:18:46;;;;;;;2.03;1.83;;;;;;;;;;5034266;28;20116;-65
2023/03/13 01:21:12;;;;;;;1.80;1.70;;;;;;;;;;5034121;28;20121;-64
2023/03/13 01:23:38;;;;;;;2.17;1.90;;;;;;;;;;5033961;28;20033;-65
2023/03/13 01:26:05;;;;;;;2.08;1.88;;;;;;;;;;5034028;28;20032;-63
2023/03/13 01:28:31;;;;;;;2.10;1.83;;;;;;;;;;5033980;28;20037;-64
2023/03/13 01:30:57;;;;;;;2.33;2.13;;;;;;;;;;5033855;28;20022;-64
2023/03/13 01:33:22;;;;;;;2.10;1.90;;;;;;;;;;5034188;28;20033;-63
2023/03/13 01:35:48;;;;;;;2.30;2.10;;;;;;;;;;5034140;28;20473;-65
2023/03/13 01:38:14;;;;;;;2.30;2.10;;;;;;;;;;5033645;28;20401;-65
2023/03/13 01:40:41;;;;;;;1.80;1.70;;;;;;;;;;5033750;28;20021;-63
2023/03/13 01:43:22;;;;;;;2.17;1.77;;;;;;;;;;5033540;28;20025;-61
2023/03/13 01:46:01;;;;;;;2.75;2.13;;;;;;;;;;5033662;28;20037;-61
2023/03/13 01:48:35;;;;;;;2.45;2.22;;;;;;;;;;5033815;28;20048;-61
2023/03/13 01:51:03;;;;;;;2.45;2.00;;;;;;;;;;5033795;28;20385;-61
2023/03/13 01:53:31;;;;;;;2.20;2.00;;;;;;;;;;5033453;28;20025;-62
2023/03/13 01:55:58;;;;;;;3.13;2.13;;;;;;;;;;5033400;28;20047;-61
2023/03/13 01:58:25;;;;;;;2.25;2.05;;;;;;;;;;5033384;28;20465;-61
2023/03/13 02:00:51;;;;;;;2.58;2.10;;;;;;;;;;5033286;28;20496;-60
2023/03/13 02:03:20;;;;;;;2.45;2.25;;;;;;;;;;5033229;28;20045;-60
2023/03/13 02:05:47;;;;;;;2.17;1.98;;;;;;;;;;5033535;28;20422;-61
2023/03/13 02:08:25;;;;;;;2.35;2.15;;;;;;;;;;5033509;28;20377;-61
2023/03/13 02:11:12;;;;;;;3.72;2.58;;;;;;;;;;5033165;28;20021;-60
2023/03/13 02:13:38;;;;;;;2.20;2.00;;;;;;;;;;5033223;28;20021;-61
2023/03/13 02:16:04;;;;;;;3.03;2.30;;;;;;;;;;5033351;28;20021;-61
2023/03/13 02:18:30;;;;;;;2.47;2.28;;;;;;;;;;5033074;28;20025;-60
2023/03/13 02:21:06;;;;;;;2.67;2.47;;;;;;;;;;5032920;28;20088;-63
2023/03/13 02:23:39;;;;;;;2.20;2.00;;;;;;;;;;5032961;28;20128;-63
2023/03/13 02:26:05;;;;;;;2.90;2.10;;;;;;;;;;5032941;28;20470;-64
2023/03/13 02:28:34;;;;;;;2.80;2.38;;;;;;;;;;5032943;28;20057;-62
2023/03/13 02:31:00;;;;;;;4.45;2.33;;;;;;;;;;5032842;28;20368;-62
2023/03/13 02:33:33;;;;;;;2.45;2.15;;;;;;;;;;5033036;28;20130;-65
2023/03/13 02:36:01;;;;;;;3.50;2.38;;;;;;;;;;5032806;28;20030;-64
2023/03/13 02:38:29;;;;;;;2.50;2.22;;;;;;;;;;5032552;28;20406;-64
2023/03/13 02:40:55;;;;;;;3.30;2.78;;;;;;;;;;5033013;28;20025;-61
2023/03/13 02:43:39;;;;;;;3.20;2.70;;;;;;;;;;5032871;28;20091;-63
2023/03/13 02:46:16;;;;;;;2.47;2.28;;;;;;;;;;5032602;28;20040;-64
2023/03/13 02:48:53;;;;;;;2.78;2.50;;;;;;;;;;5032933;28;20041;-63
2023/03/13 02:51:51;;;;;;;2.40;2.20;;;;;;;;;;5032649;28;20029;-65
2023/03/13 02:54:21;;;;;;;2.78;2.28;;;;;;;;;;5042043;28;20041;-65
2023/03/13 02:56:49;;;;;;;;;;;;;;;;;;5048321;28;20028;-65
2023/03/13 02:59:15;;;;;;;3.05;2.22;;;;;;;;;;5032426;28;19967;-64
2023/03/13 03:01:41;;;;;;;3.03;2.55;;;;;;;;;;5032681;28;20033;-64
2023/03/13 03:04:07;;;;;;;2.72;2.50;;;;;;;;;;5032398;28;20022;-62
2023/03/13 03:06:32;;;;;;;2.55;2.20;;;;;;;;;;5032349;28;20026;-64
2023/03/13 03:08:58;;;;;;;2.60;2.40;;;;;;;;;;5032599;28;20079;-64
2023/03/13 03:11:23;;;;;;;3.95;2.95;;;;;;;;;;5032670;28;20381;-64
2023/03/13 03:13:49;;;;;;;3.50;2.70;;;;;;;;;;5032238;28;20526;-62
2023/03/13 03:16:17;;;;;;;3.00;2.40;;;;;;;;;;5032364;28;20362;-65
2023/03/13 03:18:43;;;;;;;4.13;2.90;;;;;;;;;;5032222;28;20485;-65
2023/03/13 03:21:09;;;;;;;2.92;2.65;;;;;;;;;;5032566;28;20030;-65
2023/03/13 03:23:35;;;;;;;2.70;2.40;;;;;;;;;;5032096;28;20112;-65
2023/03/13 03:26:03;;;;;;;3.25;2.63;;;;;;;;;;5032194;28;20022;-65
2023/03/13 03:28:28;;;;;;;3.60;2.90;;;;;;;;;;5032136;28;20029;-65
2023/03/13 03:30:54;;;;;;;4.18;3.10;;;;;;;;;;5032228;28;20028;-62
2023/03/13 03:33:21;;;;;;;3.35;2.45;;;;;;;;;;5034036;28;20025;-65
2023/03/13 03:35:47;;;;;;;3.22;2.80;;;;;;;;;;5036486;28;20033;-65
2023/03/13 03:38:13;;;;;;;3.00;2.70;;;;;;;;;;5034618;28;20095;-64
2023/03/13 03:40:38;;;;;;;3.58;2.75;;;;;;;;;;5036064;28;20034;-64
2023/03/13 03:43:04;;;;;;;3.38;2.75;;;;;;;;;;5035883;28;20108;-65
2023/03/13 03:45:29;;;;;;;2.47;2.28;;;;;;;;;;5036239;28;20033;-65
2023/03/13 03:47:58;;;;;;;3.20;2.78;;;;;;;;;;5035826;28;20065;-64
2023/03/13 03:50:25;;;;;;;2.80;2.55;;;;;;;;;;5035799;28;20025;-65
2023/03/13 03:52:50;;;;;;;3.03;2.55;;;;;;;;;;5035844;28;20030;-64
2023/03/13 03:55:19;;;;;;;3.67;2.33;;;;;;;;;;5035670;28;20045;-60
2023/03/13 03:57:45;;;;;;;2.90;2.45;;;;;;;;;;5035701;28;20108;-60
2023/03/13 04:00:13;;;;;;;3.80;2.78;;;;;;;;;;5035716;28;20148;-60
2023/03/13 04:02:38;;;;;;;3.00;2.70;;;;;;;;;;5035812;28;20369;-60
2023/03/13 04:05:04;;;;;;;4.05;2.97;;;;;;;;;;5035618;28;20022;-60
2023/03/13 04:07:30;;;;;;;3.30;2.83;;;;;;;;;;5034362;28;20029;-60
2023/03/13 04:09:56;;;;;;;3.22;2.92;;;;;;;;;;5035504;28;20422;-60
2023/03/13 04:12:21;;;;;;;3.90;3.00;;;;;;;;;;5035726;28;20041;-61
2023/03/13 04:14:47;;;;;;;3.65;2.80;;;;;;;;;;5035493;28;20595;-65
2023/03/13 04:17:14;;;;;;;3.70;2.92;;;;;;;;;;5035312;28;20083;-65
2023/03/13 04:19:39;;;;;;;4.18;2.72;;;;;;;;;;5035294;28;20025;-65
2023/03/13 04:22:05;;;;;;;2.70;2.50;;;;;;;;;;5035122;28;20048;-66
2023/03/13 04:24:31;;;;;;;3.75;2.75;;;;;;;;;;5035210;28;20104;-65
2023/03/13 04:26:56;;;;;;;3.63;2.53;;;;;;;;;;5035143;28;20093;-65
2023/03/13 04:29:22;;;;;;;3.67;2.80;;;;;;;;;;5035413;28;20067;-65
2023/03/13 04:31:48;;;;;;;3.50;2.75;;;;;;;;;;5035076;28;20052;-62
2023/03/13 04:34:13;;;;;;;3.92;2.97;;;;;;;;;;5035333;28;20029;-60
2023/03/13 04:36:39;;;;;;;3.15;2.60;;;;;;;;;;5034767;28;20373;-61
2023/03/13 04:39:04;;;;;;;3.55;2.55;;;;;;;;;;5034888;28;20075;-60
2023/03/13 04:41:30;;;;;;;3.25;2.60;;;;;;;;;;5034805;28;20037;-60
2023/03/13 04:43:55;;;;;;;3.20;2.60;;;;;;;;;;5034360;28;20029;-60
2023/03/13 04:46:21;;;;;;;2.90;2.60;;;;;;;;;;5034341;28;20029;-60
2023/03/13 04:48:46;;;;;;;3.45;2.70;;;;;;;;;;5034708;28;20695;-60
2023/03/13 04:51:12;;;;;;;3.63;2.92;;;;;;;;;;5034655;28;20029;-60
2023/03/13 04:53:38;;;;;;;3.63;3.15;;;;;;;;;;5034628;28;20049;-65
2023/03/13 04:56:04;;;;;;;4.07;3.00;;;;;;;;;;5034610;28;20458;-64
2023/03/13 04:58:29;;;;;;;4.43;2.90;;;;;;;;;;5034503;28;20040;-65
2023/03/13 05:00:55;;;;;;;3.85;2.92;;;;;;;;;;5034495;28;20100;-63
2023/03/13 05:03:22;;;;;;;3.47;2.60;;;;;;;;;;5034383;28;20051;-64
2023/03/13 05:05:47;;;;;;;2.85;2.50;;;;;;;;;;5033173;28;20029;-64
2023/03/13 05:08:13;;;;;;;4.22;2.70;;;;;;;;;;5034641;28;20087;-60
2023/03/13 05:10:41;;;;;;;3.45;2.47;;;;;;;;;;5034244;28;20496;-63
2023/03/13 05:13:06;;;;;;;4.30;3.28;;;;;;;;;;5034182;28;20473;-63
2023/03/13 05:15:32;;;;;;;3.83;2.67;;;;;;;;;;5034208;28;20052;-61
2023/03/13 05:17:57;;;;;;;3.85;2.97;;;;;;;;;;5034372;28;20025;-66
2023/03/13 05:20:23;;;;;;;3.80;2.70;;;;;;;;;;5034147;28;20029;-65
2023/03/13 05:22:49;;;;;;;3.70;2.80;;;;;;;;;;5034332;28;20041;-65
2023/03/13 05:25:14;;;;;;;3.85;2.80;;;;;;;;;;5034297;28;20071;-65
2023/03/13 05:27:40;;;;;;;3.72;2.78;;;;;;;;;;5034148;28;20351;-64
2023/03/13 05:30:06;;;;;;;4.05;3.00;;;;;;;;;;5034086;28;20025;-60
2023/03/13 05:32:31;;;;;;;3.08;2.78;;;;;;;;;;5033771;28;20033;-64
2023/03/13 05:34:57;;;;;;;2.60;2.40;;;;;;;;;;5033855;28;20021;-65
2023/03/13 05:37:23;;;;;;;3.05;2.75;;;;;;;;;;5033513;28;20045;-64
2023/03/13 05:39:48;;;;;;;2.58;2.38;;;;;;;;;;5033740;28;20106;-64
2023/03/13 05:42:14;;;;;;;3.13;2.80;;;;;;;;;;5033610;28;20584;-65
2023/03/13 05:44:39;;;;;;;3.92;3.10;;;;;;;;;;5033949;28;20029;-65
2023/03/13 05:47:05;;;;;;;3.03;2.67;;;;;;;;;;5033652;28;20026;-60
2023/03/13 05:49:31;;;;;;;3.63;2.55;;;;;;;;;;5033599;28;20024;-62
2023/03/13 05:51:56;;;;;;;3.40;2.75;;;;;;;;;;5033448;28;20027;-60
2023/03/13 05:54:22;;;;;;;3.05;2.75;;;;;;;;;;5033429;28;20033;-60
2023/03/13 05:56:49;;;;;;;3.38;2.63;;;;;;;;;;5033405;28;20036;-61
2023/03/13 05:59:15;;;;;;;3.15;2.33;;;;;;;;;;5033421;28;20044;-60
2023/03/13 06:01:40;;;;;;;2.55;2.35;;;;;;;;;;5033360;28;20208;-60
2023/03/13 06:04:06;;;;;;;3.45;2.92;;;;;;;;;;5033241;28;20030;-60
2023/03/13 06:06:32;;;;;;;3.40;2.63;;;;;;;;;;5033438;28;20030;-60
2023/03/13 06:08:57;;;;;;;3.45;2.80;;;;;;;;;;5033037;28;20104;-60
2023/03/13 06:11:23;;;;;;;2.92;2.60;;;;;;;;;;5031656;28;20040;-57
2023/03/13 06:13:50;;;;;;;3.17;2.60;;;;;;;;;;5033013;28;20085;-60
2023/03/13 06:16:16;;;;;;;3.83;2.50;;;;;;;;;;5032917;28;20030;-60
2023/03/13 06:18:41;;;;;;;2.88;2.58;;;;;;;;;;5032910;28;20048;-61
2023/03/13 06:21:07;;;;;;;4.15;2.80;;;;;;;;;;5048244;28;20044;-62
2023/03/13 06:23:33;;;;;;;3.10;2.80;;;;;;;;;;5032800;28;20033;-60
2023/03/13 06:25:59;;;;;;;3.00;2.70;;;;;;;;;;5032804;28;20021;-60
2023/03/13 06:28:25;;;;;;;3.50;2.80;;;;;;;;;;5033196;28;20077;-61
2023/03/13 06:30:50;;;;;;;2.92;2.50;;;;;;;;;;5032699;28;20420;-61
2023/03/13 06:33:16;;;;;;;2.90;2.60;;;;;;;;;;5032780;28;20017;-61
2023/03/13 06:35:42;;;;;;;3.65;2.75;;;;;;;;;;5032630;28;20033;-60
2023/03/13 06:38:09;;;;;;;3.13;2.22;;;;;;;;;;5032516;28;20094;-60
2023/03/13 06:40:34;;;;;;;3.47;2.55;;;;;;;;;;5032559;28;20104;-61
2023/03/13 06:43:00;;;;;;;3.22;2.90;;;;;;;;;;5032590;28;20104;-60
2023/03/13 06:45:26;;;;;;;3.80;2.58;;;;;;;;;;5032574;28;20032;-60
2023/03/13 06:47:51;;;;;;;3.25;2.65;;;;;;;;;;5032828;28;20030;-60
2023/03/13 06:50:17;;;;;;;3.00;2.70;;;;;;;;;;5047876;28;20029;-61
2023/03/13 06:52:43;;;;;;;3.47;2.63;;;;;;;;;;5032781;28;20380;-61
2023/03/13 06:55:09;;;;;;;3.58;2.33;;;;;;;;;;5032769;28;20025;-61
2023/03/13 06:57:35;;;;;;;2.58;2.35;;;;;;;;;;5032442;28;20108;-60
2023/03/13 07:00:00;;;;;;;3.88;3.00;;;;;;;;;;5032690;28;20171;-61
2023/03/13 07:02:26;;;;;;;3.33;3.00;;;;;;;;;;5032551;28;20029;-61
2023/03/13 07:04:52;;;;;;;3.38;2.80;;;;;;;;;;5032381;28;20354;-61
2023/03/13 07:07:17;;;;;;;3.47;2.72;;;;;;;;;;5031743;28;20095;-63
2023/03/13 07:09:43;;;;;;;4.05;2.80;;;;;;;;;;5032317;28;20017;-59
2023/03/13 07:12:08;;;;;;;3.63;2.53;;;;;;;;;;5032589;28;20436;-61
2023/03/13 07:14:34;;;;;;;4.07;3.00;;;;;;;;;;5032201;28;20022;-60
2023/03/13 07:17:00;;;;;;;3.20;2.90;;;;;;;;;;5032546;28;20028;-61
2023/03/13 07:19:26;;;;;;;3.05;2.70;;;;;;;;;;5032227;28;20029;-61
2023/03/13 07:21:52;;;;;;;3.88;2.95;;;;;;;;;;5032043;28;20025;-62
2023/03/13 07:24:18;;;;;;;4.10;2.92;;;;;;;;;;5032208;28;20096;-61
2023/03/13 07:26:43;;;;;;;3.08;2.50;;;;;;;;;;5032134;28;20029;-60
2023/03/13 07:29:09;;;;;;;4.05;2.50;;;;;;;;;;5032119;28;20025;-59
2023/03/13 07:31:35;;;;;;;4.75;2.75;;;;;;;;;;5032368;28;20033;-59
2023/03/13 07:34:00;;;;;;;3.10;2.70;;;;;;;;;;5032401;28;20475;-61
2023/03/13 07:36:29;;;;;;;3.75;2.78;;;;;;;;;;5032056;28;20029;-60
2023/03/13 07:38:55;;;;;;;3.63;2.88;;;;;;;;;;5031998;28;20128;-61
2023/03/13 07:41:21;;;;;;;3.75;2.80;;;;;;;;;;5047223;28;20111;-60
2023/03/13 07:43:46;;;;;;;2.90;2.60;;;;;;;;;;5031423;28;20033;-64
2023/03/13 07:46:17;;;;;;;4.22;2.97;;;;;;;;;;5046751;28;20496;-62
2023/03/13 07:48:43;;;;;;;2.75;2.55;;;;;;;;;;5047178;28;20033;-61
2023/03/13 07:51:23;;;;;;;3.00;2.60;;;;;;;;;;5051866;28;20401;-60
2023/03/13 07:53:49;;;;;;;3.75;2.90;;;;;;;;;;5052089;28;20021;-62
2023/03/13 07:56:16;;;;;;;2.97;2.67;;;;;;;;;;5048540;28;20473;-61
2023/03/13 07:58:43;;;;;;;3.72;2.90;;;;;;;;;;5050469;28;20540;-62
2023/03/13 08:01:18;;;;;;;3.63;2.72;;;;;;;;;;5051449;28;20092;-59
2023/03/13 08:03:45;;;;;;;3.22;2.90;;;;;;;;;;5050604;28;20031;-60
2023/03/13 08:06:18;;;;;;;3.50;2.78;;;;;;;;;;5050569;28;20064;-59
2023/03/13 08:08:44;;;;;;;2.63;2.42;;;;;;;;;;5047247;28;20028;-63
2023/03/13 08:11:18;;;;;;;3.40;2.90;;;;;;;;;;5046989;28;20412;-60
2023/03/13 08:13:45;;;;;;;3.33;2.85;;;;;;;;;;5046663;28;20027;-60
2023/03/13 08:16:16;;;;;;;4.38;2.95;;;;;;;;;;5047688;28;20369;-60
2023/03/13 08:18:45;;;;;;;6.88;2.80;;;;;;;;;;5042531;28;20029;-60
2023/03/13 08:21:15;;;;;;;4.97;2.83;;;;;;;;;;5049919;28;20013;-58
2023/03/13 08:23:41;;;;;;;4.35;3.00;;;;;;;;;;5055058;28;20032;-60
2023/03/13 08:26:15;;;;;;;3.55;2.85;;;;;;;;;;5053366;28;20024;-59
2023/03/13 08:28:43;;;;;;;3.28;2.40;;;;;;;;;;5053469;28;20453;-60
2023/03/13 08:31:12;;;;;;;3.10;2.42;;;;;;;;;;5053324;28;20057;-60
2023/03/13 08:33:39;;;;;;;3.55;2.63;;;;;;;;;;5053571;28;20036;-60
2023/03/13 08:36:25;;;;;;;3.20;2.90;;;;;;;;;;5053372;28;20021;-60
2023/03/13 08:38:53;;;;;;;4.07;3.03;;;;;;;;;;5051748;28;20048;-63
2023/03/13 08:41:21;;;;;;;2.67;2.47;;;;;;;;;;5051722;28;20777;-60
2023/03/13 08:43:47;;;;;;;3.05;2.45;;;;;;;;;;5053106;28;20033;-61
2023/03/13 08:46:14;;;;;;;3.67;2.55;;;;;;;;;;5053018;28;20029;-61
2023/03/13 08:48:40;;;;;;;3.53;2.85;;;;;;;;;;5053103;28;20484;-61
2023/03/13 08:51:09;;;;;;;5.03;2.70;;;;;;;;;;5053030;28;20044;-61
2023/03/13 08:53:36;;;;;;;3.30;2.70;;;;;;;;;;5051507;28;20147;-61
2023/03/13 08:56:06;;;;;;;3.67;3.05;;;;;;;;;;5051596;28;20029;-60
2023/03/13 08:58:31;;;;;;;3.30;2.83;;;;;;;;;;5053056;28;20028;-63
2023/03/13 09:01:14;;;;;;;2.60;2.40;;;;;;;;;;5052788;28;20492;-62
2023/03/13 09:03:41;;;;;;;2.90;2.60;;;;;;;;;;5053020;28;20056;-61
2023/03/13 09:06:07;;;;;;;3.05;2.75;;;;;;;;;;5050974;28;20071;-61
2023/03/13 09:08:33;;;;;;;2.63;2.42;;;;;;;;;;5052393;28;20120;-62
2023/03/13 09:11:07;;;;;;;3.08;2.40;;;;;;;;;;5052909;28;20369;-60
2023/03/13 09:13:36;;;;;;;5.32;2.78;;;;;;;;;;5052008;28;20384;-62
2023/03/13 09:16:10;;;;;;;4.95;2.60;;;;;;;;;;5052566;28;20032;-61
2023/03/13 09:18:37;;;;;;;3.63;2.70;;;;;;;;;;5052560;28;20625;-62
2023/03/13 09:21:06;;;;;;;2.58;2.22;;;;;;;;;;5052612;28;20033;-61
2023/03/13 09:23:32;;;;;;;3.33;2.55;;;;;;;;;;5052235;28;20033;-61
2023/03/13 09:25:57;;;;;;;2.95;2.20;;;;;;;;;;5051067;28;20195;-61
2023/03/13 09:28:24;;;;;;;3.67;2.58;;;;;;;;;;5052450;28;20124;-62
2023/03/13 09:30:51;;;;;;;2.70;2.50;;;;;;;;;;5051592;28;20480;-62
2023/03/13 09:33:18;;;;;;;3.35;2.40;;;;;;;;;;5052386;28;20033;-61
2023/03/13 09:35:49;;;;;;;4.53;2.30;;;;;;;;;;5053120;28;20041;-62
2023/03/13 09:38:18;;;;;;;2.47;2.28;;;;;;;;;;5051499;28;20044;-62
2023/03/13 09:40:51;;;;;;;3.50;2.60;;;;;;;;;;5052131;28;20029;-62
2023/03/13 09:43:28;;;;;;;3.45;2.28;;;;;;;;;;5051542;28;20039;-61
2023/03/13 09:46:01;;;;;;;3.03;2.58;;;;;;;;;;5051530;28;20036;-62
2023/03/13 09:48:33;;;;;;;2.67;2.47;;;;;;;;;;5050712;28;20053;-61
2023/03/13 09:51:18;;;;;;;3.33;2.60;;;;;;;;;;5051793;28;20060;-62
2023/03/13 09:53:52;;;;;;;2.60;2.40;;;;;;;;;;5051851;28;20094;-63
2023/03/13 09:56:30;;;;;;;3.30;2.60;;;;;;;;;;5052164;28;20101;-63
2023/03/13 09:59:04;;;;;;;3.95;2.53;;;;;;;;;;5049588;28;20033;-62
2023/03/13 10:01:32;;;;;;;2.80;2.42;;;;;;;;;;5050788;28;20075;-62
2023/03/13 10:04:07;;;;;;;2.92;2.47;;;;;;;;;;5051859;28;20363;-61
2023/03/13 10:06:40;;;;;;;4.65;2.40;;;;;;;;;;5051823;28;20083;-62
2023/03/13 10:09:30;;;;;;;3.05;2.65;;;;;;;;;;5050832;28;20033;-62
2023/03/13 10:12:04;;;;;;;3.22;2.28;;;;;;;;;;5048714;28;20063;-62
2023/03/13 10:14:56;;;;;;;3.38;2.40;;;;;;;;;;5051710;28;20037;-62
2023/03/13 10:17:39;;;;;;;6.07;2.80;;;;;;;;;;5042952;28;20116;-62
2023/03/13 10:20:22;;;;;;;2.85;2.30;;;;;;;;;;5050201;28;20043;-61
2023/03/13 10:22:53;;;;;;;4.30;2.80;;;;;;;;;;5051219;28;20477;-62
2023/03/13 10:25:28;;;;;;;2.72;2.47;;;;;;;;;;5051349;28;20128;-61
2023/03/13 10:27:54;;;;;;;2.60;2.40;;;;;;;;;;5051205;28;20025;-61
2023/03/13 10:30:24;;;;;;;3.40;2.22;;;;;;;;;;5051133;28;20481;-62
2023/03/13 10:32:52;;;;;;;8.75;2.35;;;;;;;;;;5034225;28;20115;-61
2023/03/13 10:35:31;;;;;;;2.40;1.95;;;;;;;;;;5033309;28;20035;-62
2023/03/13 10:38:05;;;;;;;6.07;2.30;;;;;;;;;;5031497;28;20198;-62
2023/03/13 10:40:31;;;;;;;3.50;2.50;;;;;;;;;;5031015;28;20037;-62
2023/03/13 10:43:17;;;;;;;3.33;2.38;;;;;;;;;;5030178;28;20456;-62
2023/03/13 10:45:43;;;;;;;3.63;2.13;;;;;;;;;;5031386;28;20071;-62
2023/03/13 10:48:23;;;;;;;3.05;2.38;;;;;;;;;;5030958;28;20026;-62
2023/03/13 10:50:56;;;;;;;2.50;2.30;;;;;;;;;;5031076;28;20040;-62
2023/03/13 10:53:30;;;;;;;3.55;2.10;;;;;;;;;;5032540;28;20040;-63
2023/03/13 10:56:12;;;;;;;2.70;2.22;;;;;;;;;;5031069;28;20034;-62
2023/03/13 10:58:48;;;;;;;2.63;2.30;;;;;;;;;;5031066;28;20469;-61
2023/03/13 11:01:31;;;;;;;3.45;2.20;;;;;;;;;;5030683;28;20032;-63
2023/03/13 11:03:59;;;;;;;2.80;1.92;;;;;;;;;;5030634;28;20126;-61
2023/03/13 11:06:34;;;;;;;2.42;2.10;;;;;;;;;;5029810;28;20447;-61
2023/03/13 11:09:12;;;;;;;2.13;2.00;;;;;;;;;;5030856;28;20084;-62
2023/03/13 11:12:02;;;;;;;4.88;2.38;;;;;;;;;;5031261;28;20028;-61
2023/03/13 11:14:27;;;;;;;2.58;2.38;;;;;;;;;;5030864;28;20041;-62
2023/03/13 11:17:08;;;;;;;2.53;2.05;;;;;;;;;;5049891;28;20041;-61
2023/03/13 11:19:41;;;;;;;3.05;1.92;;;;;;;;;;5050550;28;20040;-61
2023/03/13 11:22:13;;;;;;;3.05;2.13;;;;;;;;;;5037996;28;20025;-62
2023/03/13 11:24:46;;;;;;;3.03;2.22;;;;;;;;;;5030422;28;20034;-61
2023/03/13 11:27:30;;;;;;;2.17;1.83;;;;;;;;;;5030583;28;20029;-62
2023/03/13 11:30:10;;;;;;;2.20;1.95;;;;;;;;;;5032291;28;20037;-62
2023/03/13 11:32:55;;;;;;;1.92;1.73;;;;;;;;;;5029565;28;20060;-62
2023/03/13 11:35:58;;;;;;;4.22;1.95;;;;;;;;;;5031702;28;20041;-63
2023/03/13 11:38:43;;;;;;;2.28;2.05;;;;;;;;;;5029377;28;20053;-62
2023/03/13 11:41:32;;;;;;;4.88;2.05;;;;;;;;;;5030901;28;20028;-63
2023/03/13 11:44:27;;;;;;;1.80;1.70;;;;;;;;;;5031736;28;20030;-62
2023/03/13 11:47:12;;;;;;;2.38;2.10;;;;;;;;;;5030524;28;20030;-62
2023/03/13 11:49:54;;;;;;;2.50;2.30;;;;;;;;;;5035406;28;20524;-63
2023/03/13 11:52:24;;;;;;;1.70;1.60;;;;;;;;;;5051117;28;20035;-63
2023/03/13 11:54:57;;;;;;;3.63;2.05;;;;;;;;;;5052983;28;20025;-63
2023/03/13 11:57:36;;;;;;;2.25;1.70;;;;;;;;;;5055017;28;20037;-62
2023/03/13 12:00:39;;;;;;;2.13;1.90;;;;;;;;;;5054836;28;20040;-63
2023/03/13 12:03:21;;;;;;;2.58;2.25;;;;;;;;;;5054393;28;20079;-64
2023/03/13 12:05:56;;;;;;;3.35;2.40;;;;;;;;;;5054958;28;20040;-65
2023/03/13 12:08:45;;;;;;;3.50;2.10;;;;;;;;;;5053433;28;20033;-63
2023/03/13 12:11:26;;;;;;;1.80;1.70;;;;;;;;;;5054047;28;20082;-61
2023/03/13 12:14:05;;;;;;;1.90;1.80;;;;;;;;;;5052660;28;20037;-62
2023/03/13 12:16:42;;;;;;;3.97;2.10;;;;;;;;;;5053858;28;20424;-61
2023/03/13 12:19:16;;;;;;;2.65;2.00;;;;;;;;;;5054237;28;20029;-63
2023/03/13 12:21:49;;;;;;;2.28;2.00;;;;;;;;;;5042830;28;20490;-62
2023/03/13 12:24:39;;;;;;;2.20;2.00;;;;;;;;;;5034012;28;20065;-61
2023/03/13 12:27:16;;;;;;;3.10;2.25;;;;;;;;;;5034190;28;20029;-62
2023/03/13 12:29:45;;;;;;;2.72;2.30;;;;;;;;;;5033717;28;20033;-61
2023/03/13 12:32:32;;;;;;;2.33;2.13;;;;;;;;;;5033562;28;20030;-61
2023/03/13 12:35:20;;;;;;;5.00;2.75;;;;;;;;;;5034269;28;20381;-61
2023/03/13 12:38:13;;;;;;;1.83;1.73;;;;;;;;;;5033518;28;20068;-62
2023/03/13 12:40:45;;;;;;;2.05;1.80;;;;;;;;;;5023131;28;20133;-62
2023/03/13 12:43:18;;;;;;;2.58;2.00;;;;;;;;;;5034439;28;20112;-63
2023/03/13 12:45:55;;;;;;;3.72;1.88;;;;;;;;;;5033511;28;20025;-62
2023/03/13 12:48:42;;;;;;;2.60;2.20;;;;;;;;;;5033391;28;20039;-63
2023/03/13 12:51:14;;;;;;;3.25;2.15;;;;;;;;;;5033153;28;20068;-62
2023/03/13 12:53:49;;;;;;;3.90;1.80;;;;;;;;;;5039658;28;20091;-62
2023/03/13 12:56:19;;;;;;;2.35;2.00;;;;;;;;;;5052145;28;20417;-62
2023/03/13 12:59:08;;;;;;;2.10;1.90;;;;;;;;;;5032985;28;20068;-62
2023/03/13 13:01:42;;;;;;;2.17;1.90;;;;;;;;;;5033213;28;20119;-63
2023/03/13 13:04:14;;;;;;;2.05;1.92;;;;;;;;;;5033205;28;20116;-62
2023/03/13 13:06:55;;;;;;;2.65;2.13;;;;;;;;;;5039343;28;20117;-62
2023/03/13 13:09:32;;;;;;;1.83;1.73;;;;;;;;;;5051896;28;20104;-62
2023/03/13 13:12:03;;;;;;;2.00;1.80;;;;;;;;;;5052754;28;20033;-65
2023/03/13 13:14:30;;;;;;;2.20;2.00;;;;;;;;;;5050904;28;20033;-63
2023/03/13 13:17:12;;;;;;;3.22;2.70;;;;;;;;;;5051036;28;20108;-61
2023/03/13 13:19:40;;;;;;;2.67;2.05;;;;;;;;;;5051728;28;20020;-62
2023/03/13 13:22:36;;;;;;;2.10;1.90;;;;;;;;;;5051961;28;20028;-61
2023/03/13 13:25:19;;;;;;;2.28;2.10;;;;;;;;;;5051690;28;20037;-63
2023/03/13 13:27:46;;;;;;;2.33;1.73;;;;;;;;;;5051289;28;20047;-61
2023/03/13 13:30:18;;;;;;;2.80;1.80;;;;;;;;;;5052113;28;20036;-61
2023/03/13 13:32:45;;;;;;;2.88;2.20;;;;;;;;;;5051221;28;20104;-64
2023/03/13 13:35:30;;;;;;;1.73;1.52;;;;;;;;;;5052629;28;20017;-63
2023/03/13 13:38:17;;;;;;;2.65;2.20;;;;;;;;;;5049826;28;20037;-63
2023/03/13 13:40:58;;;;;;;1.70;1.60;;;;;;;;;;5049358;28;20499;-62
2023/03/13 13:43:24;;;;;;;1.90;1.70;;;;;;;;;;5049454;28;20048;-62
2023/03/13 13:46:02;;;;;;;3.63;2.00;;;;;;;;;;5050871;28;20037;-61
2023/03/13 13:48:34;;;;;;;2.20;2.00;;;;;;;;;;5052052;28;20524;-62
2023/03/13 13:51:13;;;;;;;1.85;1.75;;;;;;;;;;5052971;28;20441;-64
2023/03/13 13:53:52;;;;;;;6.88;1.70;;;;;;;;;;5052114;28;20025;-62
2023/03/13 13:56:30;;;;;;;1.80;1.70;;;;;;;;;;5051496;28;20029;-63
2023/03/13 13:59:01;;;;;;;3.25;1.50;;;;;;;;;;5052425;28;20032;-61
2023/03/13 14:01:27;;;;;;;5.07;1.70;;;;;;;;;;5051179;28;20473;-63
2023/03/13 14:04:04;;;;;;;2.05;1.70;;;;;;;;;;5052334;28;20119;-62
2023/03/13 14:06:34;;;;;;;2.47;1.70;;;;;;;;;;5049864;28;20044;-61
2023/03/13 14:09:24;;;;;;;3.17;1.88;;;;;;;;;;5052237;28;20047;-63
2023/03/13 14:11:51;;;;;;;1.75;1.65;;;;;;;;;;5052043;28;20044;-61
2023/03/13 14:14:21;;;;;;;1.70;1.60;;;;;;;;;;5052919;28;20028;-61
2023/03/13 14:16:53;;;;;;;9.85;1.65;;;;;;;;;;5051387;28;20033;-61
2023/03/13 14:19:24;;;;;;;2.05;1.50;;;;;;;;;;5051205;28;20100;-61
2023/03/13 14:21:50;;;;;;;2.33;1.83;;;;;;;;;;5052451;28;20384;-62
2023/03/13 14:24:16;;;;;;;3.80;2.00;;;;;;;;;;5051185;28;20033;-64
2023/03/13 14:26:43;;;;;;;3.97;1.67;;;;;;;;;;5052246;28;20021;-61
2023/03/13 14:29:19;;;;;;;6.22;1.70;;;;;;;;;;5051054;28;20033;-62
2023/03/13 14:31:56;;;;;;;4.63;2.00;;;;;;;;;;5052781;28;20116;-62
2023/03/13 14:34:22;;;;;;;5.80;1.70;;;;;;;;;;5051859;28;20059;-61
2023/03/13 14:36:52;;;;;;;2.72;1.90;;;;;;;;;;5051888;28;20033;-62
2023/03/13 14:39:39;;;;;;;5.05;2.00;;;;;;;;;;5052080;28;20464;-62
2023/03/13 14:42:09;;;;;;;5.05;1.70;;;;;;;;;;5051474;28;20082;-62
2023/03/13 14:44:37;;;;;;;3.78;1.92;;;;;;;;;;5052655;28;20029;-60
2023/03/13 14:47:15;;;;;;;6.55;1.60;;;;;;;;;;5051941;28;20380;-64
2023/03/13 14:49:45;;;;;;;2.72;1.65;;;;;;;;;;5052215;28;20377;-61
2023/03/13 14:52:23;;;;;;;2.88;1.70;;;;;;;;;;5051432;28;20469;-61
2023/03/13 14:54:54;;;;;;;7.25;1.98;;;;;;;;;;5049037;28;20762;-57
2023/03/13 14:57:22;;;;;;;12.82;1.90;;;;;;;;;;5042222;28;20216;-57
2023/03/13 14:59:49;;;;;;;9.88;1.77;;;;;;;;;;5050982;28;20569;-62
2023/03/13 15:02:22;;;;;;;5.65;1.60;;;;;;;;;;5051342;28;20103;-59